Weather

Other Local Aerodome WX Info

Adelaide

TAF YPAD 060508Z 0606/0712 23012KT 9999 FEW030 SCT045 FM060900 13005KT 9999 SCT025 BKN040 FM070300 22008KT 9999 FEW030 BKN045 FM070800 12010KT 9999 BKN040 RMK T 19 17 16 15 Q 1021 1022 1023 1022

Parafield

TAF YPPF 060508Z 0606/0618 23012KT 9999 FEW030 SCT045 FM060900 13005KT 9999 SCT025 BKN040 RMK T 20 17 16 15 Q 1021 1021 1022 1022

Murray Bridge

TAF YMBD 060102Z 0602/0614 13007KT 9999 -SHRA SCT020 BKN030 FM060300 15008KT 9999 NSW FEW030 BKN035 FM060800 19006KT 9999 BKN025 RMK T 18 19 18 16 Q 1022 1021 1022 1023

Kingscote

TAF AMD YKSC 060547Z 0606/0618 20008KT 9999 -SHRA SCT025 BKN035 FM060900 16008KT 9999 NSW FEW020 SCT030 INTER 0606/0609 5000 SHRA BKN014 RMK T 17 16 14 12 Q 1021 1022 1023 1023